createdAt,value
2022-12-20T00:00:40.054Z,8.23
2022-12-20T00:01:40.135Z,8.23
2022-12-20T00:02:40.158Z,8.31
2022-12-20T00:03:40.036Z,8.34
2022-12-20T00:04:40.040Z,8.36
2022-12-20T00:05:40.014Z,8.34
2022-12-20T00:06:40.004Z,8.41
2022-12-20T00:07:40.015Z,8.34
2022-12-20T00:08:39.988Z,8.45
2022-12-20T00:09:39.990Z,8.46
2022-12-20T00:10:39.971Z,8.41
2022-12-20T00:11:39.968Z,8.44
2022-12-20T00:12:39.967Z,8.46
2022-12-20T00:13:39.952Z,8.33
2022-12-20T00:14:39.944Z,8.36
2022-12-20T00:15:39.947Z,8.36
2022-12-20T00:16:39.929Z,8.30
2022-12-20T00:17:39.936Z,8.36
2022-12-20T00:18:39.917Z,8.33
2022-12-20T00:19:39.910Z,8.36
2022-12-20T00:20:39.906Z,8.36
2022-12-20T00:21:39.915Z,8.38
2022-12-20T00:22:39.889Z,8.36
2022-12-20T00:23:39.903Z,8.24
2022-12-20T00:24:39.869Z,8.34
2022-12-20T00:25:39.865Z,8.42
2022-12-20T00:26:39.888Z,8.36
2022-12-20T00:27:39.860Z,8.16
2022-12-20T00:28:39.855Z,8.30
2022-12-20T00:29:39.836Z,8.28
2022-12-20T00:30:39.826Z,8.19
2022-12-20T00:31:39.904Z,8.18
2022-12-20T00:32:39.813Z,8.08
2022-12-20T00:33:39.813Z,8.09
2022-12-20T00:34:39.801Z,8.06
2022-12-20T00:35:39.793Z,8.00
2022-12-20T00:36:39.783Z,8.01
2022-12-20T00:37:39.780Z,8.01
2022-12-20T00:38:39.767Z,8.00
2022-12-20T00:39:39.782Z,7.95
2022-12-20T00:40:39.755Z,7.95
2022-12-20T00:41:39.748Z,7.94
2022-12-20T00:42:39.740Z,7.87
2022-12-20T00:43:39.754Z,7.88
2022-12-20T00:44:39.744Z,7.87
2022-12-20T00:45:39.730Z,7.91
2022-12-20T00:46:39.807Z,7.90
2022-12-20T00:47:39.705Z,7.90
2022-12-20T00:48:39.693Z,7.90
2022-12-20T00:49:39.690Z,7.91
2022-12-20T00:50:39.683Z,7.91
2022-12-20T00:51:39.672Z,8.00
2022-12-20T00:52:39.670Z,8.00
2022-12-20T00:53:39.665Z,8.05
2022-12-20T00:54:39.656Z,8.01
2022-12-20T00:55:39.666Z,7.94
2022-12-20T00:56:39.639Z,8.00
2022-12-20T00:57:39.630Z,7.97
2022-12-20T00:58:39.631Z,8.00
2022-12-20T00:59:39.631Z,7.98
2022-12-20T01:00:39.645Z,8.09
2022-12-20T01:01:39.849Z,8.03
2022-12-20T01:02:39.703Z,8.18
2022-12-20T01:03:39.625Z,8.19
2022-12-20T01:04:39.583Z,8.31
2022-12-20T01:05:39.572Z,8.33
2022-12-20T01:06:39.565Z,8.46
2022-12-20T01:07:39.561Z,8.51
2022-12-20T01:08:39.550Z,8.56
2022-12-20T01:09:39.547Z,8.58
2022-12-20T01:10:39.535Z,8.60
2022-12-20T01:11:39.551Z,8.63
2022-12-20T01:12:39.519Z,8.66
2022-12-20T01:13:39.510Z,8.67
2022-12-20T01:14:39.508Z,8.70
2022-12-20T01:15:39.498Z,8.73
2022-12-20T01:16:39.574Z,8.67
2022-12-20T01:17:39.481Z,8.71
2022-12-20T01:18:39.480Z,8.71
2022-12-20T01:19:39.472Z,8.71
2022-12-20T01:20:39.469Z,8.70
2022-12-20T01:21:39.461Z,8.78
2022-12-20T01:22:43.849Z,8.70
2022-12-20T01:23:39.645Z,8.79
2022-12-20T01:24:39.435Z,8.74
2022-12-20T01:25:39.425Z,8.81
2022-12-20T01:26:39.432Z,8.79
2022-12-20T01:27:39.429Z,8.84
2022-12-20T01:28:39.409Z,8.81
2022-12-20T01:29:39.402Z,8.76
2022-12-20T01:30:39.392Z,8.82
2022-12-20T01:31:39.452Z,8.71
2022-12-20T01:32:39.383Z,8.69
2022-12-20T01:33:39.368Z,8.71
2022-12-20T01:34:39.362Z,8.76
2022-12-20T01:35:39.375Z,8.78
2022-12-20T01:36:39.350Z,8.81
2022-12-20T01:37:39.336Z,8.84
2022-12-20T01:38:39.334Z,8.85
2022-12-20T01:39:39.323Z,8.79
2022-12-20T01:40:39.331Z,8.85
2022-12-20T01:41:39.314Z,8.82
2022-12-20T01:42:39.309Z,8.74
2022-12-20T01:43:39.313Z,8.85
2022-12-20T01:44:39.290Z,8.79
2022-12-20T01:45:39.314Z,8.71
2022-12-20T01:46:39.279Z,8.73
2022-12-20T01:47:39.270Z,8.66
2022-12-20T01:48:39.268Z,8.73
2022-12-20T01:49:39.253Z,8.70
2022-12-20T01:50:39.246Z,8.70
2022-12-20T01:51:39.239Z,8.70
2022-12-20T01:52:39.235Z,8.70
2022-12-20T01:53:39.224Z,8.81
2022-12-20T01:54:39.221Z,8.81
2022-12-20T01:55:39.212Z,8.85
2022-12-20T01:56:39.219Z,8.81
2022-12-20T01:57:39.201Z,8.85
2022-12-20T01:58:39.194Z,8.85
2022-12-20T01:59:39.227Z,8.88
2022-12-20T02:00:39.179Z,8.87
2022-12-20T02:01:39.287Z,8.87
2022-12-20T02:02:39.377Z,8.94
2022-12-20T02:03:39.193Z,8.92
2022-12-20T02:04:39.152Z,8.85
2022-12-20T02:05:39.142Z,8.89
2022-12-20T02:06:39.132Z,8.89
2022-12-20T02:07:39.122Z,9.00
2022-12-20T02:08:39.127Z,8.89
2022-12-20T02:09:39.121Z,8.97
2022-12-20T02:10:39.105Z,8.99
2022-12-20T02:11:39.099Z,9.02
2022-12-20T02:12:39.101Z,9.04
2022-12-20T02:13:39.082Z,9.10
2022-12-20T02:14:39.078Z,9.08
2022-12-20T02:15:39.089Z,9.03
2022-12-20T02:16:39.152Z,9.06
2022-12-20T02:17:39.054Z,9.03
2022-12-20T02:18:39.050Z,8.99
2022-12-20T02:19:39.048Z,9.08
2022-12-20T02:20:39.033Z,9.11
2022-12-20T02:21:39.028Z,9.04
2022-12-20T02:22:39.021Z,9.08
2022-12-20T02:23:39.010Z,9.06
2022-12-20T02:24:39.007Z,9.04
2022-12-20T02:25:39.002Z,9.19
2022-12-20T02:26:39.001Z,9.14
2022-12-20T02:27:38.994Z,9.06
2022-12-20T02:28:38.977Z,9.10
2022-12-20T02:29:38.970Z,9.04
2022-12-20T02:30:38.967Z,9.04
2022-12-20T02:31:39.051Z,9.02
2022-12-20T02:32:38.954Z,9.00
2022-12-20T02:33:38.943Z,8.97
2022-12-20T02:34:38.934Z,9.00
2022-12-20T02:35:38.923Z,8.97
2022-12-20T02:36:38.920Z,9.00
2022-12-20T02:37:38.912Z,8.97
2022-12-20T02:38:38.906Z,9.11
2022-12-20T02:39:38.902Z,9.02
2022-12-20T02:40:38.894Z,8.89
2022-12-20T02:41:38.893Z,8.91
2022-12-20T02:42:38.879Z,8.92
2022-12-20T02:43:38.870Z,9.00
2022-12-20T02:44:38.874Z,9.02
2022-12-20T02:45:38.903Z,9.03
2022-12-20T02:46:38.853Z,9.03
2022-12-20T02:47:38.861Z,9.03
2022-12-20T02:48:38.837Z,9.04
2022-12-20T02:49:38.835Z,9.08
2022-12-20T02:50:38.819Z,9.06
2022-12-20T02:51:38.813Z,9.06
2022-12-20T02:52:38.807Z,9.11
2022-12-20T02:53:38.803Z,9.08
2022-12-20T02:54:38.799Z,9.03
2022-12-20T02:55:38.786Z,9.02
2022-12-20T02:56:38.801Z,9.02
2022-12-20T02:57:38.772Z,9.00
2022-12-20T02:58:38.779Z,8.99
2022-12-20T02:59:38.761Z,8.99
2022-12-20T03:00:38.752Z,9.00
2022-12-20T03:01:38.857Z,8.92
2022-12-20T03:02:38.943Z,8.89
2022-12-20T03:03:38.884Z,8.94
2022-12-20T03:04:38.735Z,8.88
2022-12-20T03:05:38.717Z,8.92
2022-12-20T03:06:38.710Z,8.89
2022-12-20T03:07:38.705Z,9.00
2022-12-20T03:08:38.695Z,8.94
2022-12-20T03:09:38.692Z,9.04
2022-12-20T03:10:38.680Z,8.95
2022-12-20T03:11:38.673Z,9.00
2022-12-20T03:12:38.680Z,9.02
2022-12-20T03:13:38.670Z,8.99
2022-12-20T03:14:38.659Z,9.00
2022-12-20T03:15:38.649Z,8.99
2022-12-20T03:16:38.695Z,8.97
2022-12-20T03:17:38.643Z,8.95
2022-12-20T03:18:38.641Z,8.99
2022-12-20T03:19:38.642Z,9.02
2022-12-20T03:20:38.614Z,8.92
2022-12-20T03:21:38.604Z,9.00
2022-12-20T03:22:38.604Z,8.91
2022-12-20T03:23:38.590Z,8.94
2022-12-20T03:24:38.585Z,8.88
2022-12-20T03:25:38.584Z,8.84
2022-12-20T03:26:38.579Z,8.79
2022-12-20T03:27:38.565Z,8.92
2022-12-20T03:28:38.555Z,8.87
2022-12-20T03:29:38.550Z,8.87
2022-12-20T03:30:38.605Z,8.85
2022-12-20T03:31:38.575Z,8.87
2022-12-20T03:32:38.523Z,8.82
2022-12-20T03:33:38.527Z,8.73
2022-12-20T03:34:38.514Z,8.78
2022-12-20T03:35:38.525Z,8.84
2022-12-20T03:36:38.497Z,8.85
2022-12-20T03:37:38.492Z,8.87
2022-12-20T03:38:38.489Z,8.85
2022-12-20T03:39:38.479Z,8.79
2022-12-20T03:40:38.472Z,8.85
2022-12-20T03:41:38.465Z,8.81
2022-12-20T03:42:38.464Z,8.82
2022-12-20T03:43:38.460Z,8.84
2022-12-20T03:44:38.500Z,8.87
2022-12-20T03:45:38.450Z,8.85
2022-12-20T03:46:38.469Z,8.70
2022-12-20T03:47:38.445Z,8.67
2022-12-20T03:48:38.419Z,8.73
2022-12-20T03:49:38.426Z,8.73
2022-12-20T03:50:38.401Z,8.73
2022-12-20T03:51:38.417Z,8.73
2022-12-20T03:52:38.401Z,8.73
2022-12-20T03:53:38.395Z,8.71
2022-12-20T03:54:38.378Z,8.73
2022-12-20T03:55:38.386Z,8.71
2022-12-20T03:56:38.362Z,8.63
2022-12-20T03:57:38.415Z,8.70
2022-12-20T03:58:38.350Z,8.71
2022-12-20T03:59:38.357Z,8.71
2022-12-20T04:00:38.340Z,8.64
2022-12-20T04:01:38.459Z,8.64
2022-12-20T04:02:38.526Z,8.67
2022-12-20T04:03:38.477Z,8.70
2022-12-20T04:04:38.307Z,8.67
2022-12-20T04:05:38.299Z,8.67
2022-12-20T04:06:38.314Z,8.64
2022-12-20T04:07:38.323Z,8.61
2022-12-20T04:08:38.277Z,8.60
2022-12-20T04:09:38.274Z,8.71
2022-12-20T04:10:38.261Z,8.64
2022-12-20T04:11:38.257Z,8.63
2022-12-20T04:12:38.249Z,8.66
2022-12-20T04:13:38.260Z,8.61
2022-12-20T04:14:38.236Z,8.63
2022-12-20T04:15:38.266Z,8.69
2022-12-20T04:16:38.316Z,8.64
2022-12-20T04:17:38.218Z,8.58
2022-12-20T04:18:38.219Z,8.58
2022-12-20T04:19:38.203Z,8.64
2022-12-20T04:20:38.197Z,8.60
2022-12-20T04:21:38.193Z,8.60
2022-12-20T04:22:38.211Z,8.51
2022-12-20T04:23:38.239Z,8.52
2022-12-20T04:24:38.220Z,8.53
2022-12-20T04:25:38.160Z,8.46
2022-12-20T04:26:38.149Z,8.45
2022-12-20T04:27:38.145Z,8.53
2022-12-20T04:28:38.135Z,8.48
2022-12-20T04:29:38.151Z,8.51
2022-12-20T04:30:38.127Z,8.55
2022-12-20T04:31:38.260Z,8.52
2022-12-20T04:32:38.111Z,8.49
2022-12-20T04:33:38.128Z,8.58
2022-12-20T04:34:38.109Z,8.55
2022-12-20T04:35:38.093Z,8.56
2022-12-20T04:36:38.080Z,8.55
2022-12-20T04:37:38.084Z,8.56
2022-12-20T04:38:38.067Z,8.70
2022-12-20T04:39:38.080Z,8.60
2022-12-20T04:40:38.053Z,8.55
2022-12-20T04:41:38.046Z,8.61
2022-12-20T04:42:38.040Z,8.63
2022-12-20T04:43:38.035Z,8.61
2022-12-20T04:44:38.036Z,8.63
2022-12-20T04:45:38.057Z,8.66
2022-12-20T04:46:38.065Z,8.60
2022-12-20T04:47:38.008Z,8.69
2022-12-20T04:48:56.378Z,8.63
2022-12-20T04:49:38.008Z,8.60
2022-12-20T04:50:37.988Z,8.60
2022-12-20T04:51:37.977Z,8.60
2022-12-20T04:52:42.140Z,8.60
2022-12-20T04:53:37.965Z,8.61
2022-12-20T04:54:37.964Z,8.56
2022-12-20T04:55:37.984Z,8.63
2022-12-20T04:56:37.947Z,8.51
2022-12-20T04:57:37.949Z,8.60
2022-12-20T04:58:37.936Z,8.56
2022-12-20T04:59:37.922Z,8.61
2022-12-20T05:00:37.918Z,8.60
2022-12-20T05:01:38.031Z,8.58
2022-12-20T05:02:38.121Z,8.61
2022-12-20T05:03:37.998Z,8.69
2022-12-20T05:04:37.975Z,8.61
2022-12-20T05:05:37.881Z,8.61
2022-12-20T05:06:37.874Z,8.61
2022-12-20T05:07:37.865Z,8.61
2022-12-20T05:08:37.862Z,8.69
2022-12-20T05:09:37.858Z,8.60
2022-12-20T05:10:37.853Z,8.60
2022-12-20T05:11:37.861Z,8.66
2022-12-20T05:12:37.828Z,8.55
2022-12-20T05:13:37.832Z,8.53
2022-12-20T05:14:37.827Z,8.49
2022-12-20T05:15:37.865Z,8.71
2022-12-20T05:16:37.894Z,8.63
2022-12-20T05:17:37.794Z,8.55
2022-12-20T05:18:41.629Z,8.55
2022-12-20T05:19:37.783Z,8.51
2022-12-20T05:20:37.776Z,8.53
2022-12-20T05:21:37.767Z,8.56
2022-12-20T05:22:37.759Z,8.51
2022-12-20T05:23:37.762Z,8.60
2022-12-20T05:24:37.749Z,8.55
2022-12-20T05:25:37.743Z,8.56
2022-12-20T05:26:37.918Z,8.49
2022-12-20T05:27:37.747Z,8.49
2022-12-20T05:28:37.723Z,8.48
2022-12-20T05:29:37.713Z,8.45
2022-12-20T05:30:37.705Z,8.38
2022-12-20T05:31:37.792Z,8.36
2022-12-20T05:32:37.694Z,8.37
2022-12-20T05:33:37.694Z,8.42
2022-12-20T05:34:37.678Z,8.45
2022-12-20T05:35:37.678Z,8.46
2022-12-20T05:36:37.671Z,8.49
2022-12-20T05:37:37.658Z,8.48
2022-12-20T05:38:37.666Z,8.49
2022-12-20T05:39:37.642Z,8.51
2022-12-20T05:40:37.634Z,8.41
2022-12-20T05:41:37.639Z,8.42
2022-12-20T05:42:37.623Z,8.48
2022-12-20T05:43:37.643Z,8.56
2022-12-20T05:44:37.609Z,8.49
2022-12-20T05:45:37.602Z,8.51
2022-12-20T05:46:37.814Z,8.48
2022-12-20T05:47:37.588Z,8.48
2022-12-20T05:48:37.593Z,8.53
2022-12-20T05:49:37.579Z,8.46
2022-12-20T05:50:37.565Z,8.56
2022-12-20T05:51:37.572Z,8.49
2022-12-20T05:52:37.556Z,8.49
2022-12-20T05:53:37.545Z,8.56
2022-12-20T05:54:37.558Z,8.52
2022-12-20T05:55:37.530Z,8.63
2022-12-20T05:56:37.525Z,8.55
2022-12-20T05:57:37.519Z,8.55
2022-12-20T05:58:37.510Z,8.55
2022-12-20T05:59:37.527Z,8.56
2022-12-20T06:00:37.498Z,8.55
2022-12-20T06:01:37.656Z,8.55
2022-12-20T06:02:37.731Z,8.53
2022-12-20T06:03:37.673Z,8.61
2022-12-20T06:04:37.468Z,8.49
2022-12-20T06:05:37.462Z,8.60
2022-12-20T06:06:37.458Z,8.60
2022-12-20T06:07:37.472Z,8.53
2022-12-20T06:08:37.447Z,8.61
2022-12-20T06:09:37.458Z,8.69
2022-12-20T06:10:37.444Z,8.64
2022-12-20T06:11:37.429Z,8.58
2022-12-20T06:12:37.426Z,8.53
2022-12-20T06:13:37.409Z,8.56
2022-12-20T06:14:37.401Z,8.55
2022-12-20T06:15:37.430Z,8.56
2022-12-20T06:16:37.437Z,8.56
2022-12-20T06:17:37.378Z,8.56
2022-12-20T06:18:37.375Z,8.64
2022-12-20T06:19:37.367Z,8.61
2022-12-20T06:20:37.362Z,8.55
2022-12-20T06:21:37.354Z,8.64
2022-12-20T06:22:37.368Z,8.63
2022-12-20T06:23:37.343Z,8.67
2022-12-20T06:24:39.496Z,8.58
2022-12-20T06:25:37.324Z,8.64
2022-12-20T06:26:37.320Z,8.60
2022-12-20T06:27:37.312Z,8.67
2022-12-20T06:28:37.304Z,8.70
2022-12-20T06:29:37.300Z,8.66
2022-12-20T06:30:37.306Z,8.64
2022-12-20T06:31:37.383Z,8.70
2022-12-20T06:32:37.276Z,8.64
2022-12-20T06:33:37.267Z,8.66
2022-12-20T06:34:37.266Z,8.67
2022-12-20T06:35:37.258Z,8.70
2022-12-20T06:36:37.250Z,8.70
2022-12-20T06:37:37.253Z,8.66
2022-12-20T06:38:37.237Z,8.61
2022-12-20T06:39:37.231Z,8.69
2022-12-20T06:40:37.223Z,8.67
2022-12-20T06:41:37.224Z,8.66
2022-12-20T06:42:37.209Z,8.67
2022-12-20T06:43:37.197Z,8.67
2022-12-20T06:44:37.205Z,8.67
2022-12-20T06:45:41.594Z,8.67
2022-12-20T06:46:37.235Z,8.71
2022-12-20T06:47:37.269Z,8.67
2022-12-20T06:48:37.169Z,8.70
2022-12-20T06:49:37.161Z,8.70
2022-12-20T06:50:37.165Z,8.71
2022-12-20T06:51:37.146Z,8.69
2022-12-20T06:52:37.137Z,8.71
2022-12-20T06:53:37.145Z,8.73
2022-12-20T06:54:37.117Z,8.74
2022-12-20T06:55:37.117Z,8.76
2022-12-20T06:56:41.196Z,8.74
2022-12-20T06:57:37.101Z,8.73
2022-12-20T06:58:37.092Z,8.74
2022-12-20T06:59:37.112Z,8.76
2022-12-20T07:00:37.099Z,8.70
2022-12-20T07:01:37.231Z,8.70
2022-12-20T07:02:37.223Z,8.73
2022-12-20T07:03:37.255Z,8.74
2022-12-20T07:04:37.069Z,8.73
2022-12-20T07:05:37.048Z,8.73
2022-12-20T07:06:37.038Z,8.70
2022-12-20T07:07:44.389Z,8.70
2022-12-20T07:08:37.029Z,8.71
2022-12-20T07:09:37.018Z,8.73
2022-12-20T07:10:37.013Z,8.73
2022-12-20T07:11:37.005Z,8.66
2022-12-20T07:12:39.859Z,8.73
2022-12-20T07:13:36.992Z,8.69
2022-12-20T07:14:36.996Z,8.71
2022-12-20T07:15:36.991Z,8.69
2022-12-20T07:16:37.047Z,8.67
2022-12-20T07:17:36.974Z,8.71
2022-12-20T07:18:36.959Z,8.66
2022-12-20T07:19:37.057Z,8.70
2022-12-20T07:20:36.947Z,8.64
2022-12-20T07:21:36.934Z,8.67
2022-12-20T07:22:36.929Z,8.66
2022-12-20T07:23:36.926Z,8.69
2022-12-20T07:24:36.920Z,8.61
2022-12-20T07:25:36.910Z,8.66
2022-12-20T07:26:36.916Z,8.64
2022-12-20T07:27:37.028Z,8.71
2022-12-20T07:28:36.887Z,8.69
2022-12-20T07:29:36.878Z,8.76
2022-12-20T07:30:36.911Z,8.69
2022-12-20T07:31:36.900Z,8.69
2022-12-20T07:32:36.864Z,8.69
2022-12-20T07:33:36.852Z,8.71
2022-12-20T07:34:36.851Z,8.73
2022-12-20T07:35:36.861Z,8.63
2022-12-20T07:36:36.831Z,8.76
2022-12-20T07:37:36.824Z,8.71
2022-12-20T07:38:36.963Z,8.70
2022-12-20T07:39:36.813Z,8.84
2022-12-20T07:40:36.807Z,8.82
2022-12-20T07:41:36.808Z,8.82
2022-12-20T07:42:40.280Z,8.73
2022-12-20T07:43:36.780Z,8.81
2022-12-20T07:44:36.777Z,8.74
2022-12-20T07:45:36.835Z,8.81
2022-12-20T07:46:36.808Z,8.81
2022-12-20T07:47:36.756Z,8.81
2022-12-20T07:48:37.255Z,8.71
2022-12-20T07:49:36.753Z,8.84
2022-12-20T07:50:36.745Z,8.85
2022-12-20T07:51:36.879Z,8.87
2022-12-20T07:52:36.723Z,8.81
2022-12-20T07:53:37.020Z,8.82
2022-12-20T07:54:36.722Z,8.82
2022-12-20T07:55:36.706Z,8.85
2022-12-20T07:56:41.089Z,8.87
2022-12-20T07:57:36.684Z,8.89
2022-12-20T07:58:36.687Z,8.97
2022-12-20T07:59:36.691Z,8.85
2022-12-20T08:00:36.669Z,8.87
2022-12-20T08:01:36.828Z,8.91
2022-12-20T08:02:36.918Z,8.87
2022-12-20T08:03:36.803Z,8.92
2022-12-20T08:04:36.639Z,8.95
2022-12-20T08:05:36.637Z,8.87
2022-12-20T08:06:36.636Z,8.85
2022-12-20T08:07:36.635Z,8.82
2022-12-20T08:08:36.613Z,8.87
2022-12-20T08:09:36.604Z,8.87
2022-12-20T08:10:36.601Z,8.81
2022-12-20T08:11:36.613Z,8.84
2022-12-20T08:12:36.584Z,8.70
2022-12-20T08:13:42.511Z,8.88
2022-12-20T08:14:36.581Z,8.85
2022-12-20T08:15:36.562Z,8.88
2022-12-20T08:16:36.808Z,8.79
2022-12-20T08:17:36.552Z,8.78
2022-12-20T08:18:36.550Z,8.85
2022-12-20T08:19:36.540Z,8.82
2022-12-20T08:20:36.538Z,8.79
2022-12-20T08:21:36.526Z,8.73
2022-12-20T08:22:36.518Z,8.79
2022-12-20T08:23:36.529Z,8.79
2022-12-20T08:24:36.502Z,8.74
2022-12-20T08:25:41.468Z,8.79
2022-12-20T08:26:36.496Z,8.76
2022-12-20T08:27:36.493Z,8.84
2022-12-20T09:59:38.951Z,9.44
2022-12-20T10:00:33.570Z,9.46
2022-12-20T10:01:39.569Z,9.43
2022-12-20T10:06:17.202Z,9.43
2022-12-20T10:07:17.197Z,9.43
2022-12-20T10:08:17.201Z,9.43
2022-12-20T10:09:17.191Z,9.43
2022-12-20T10:10:17.198Z,9.41
2022-12-20T10:11:17.187Z,9.47
2022-12-20T10:12:17.183Z,9.47
2022-12-20T10:13:17.174Z,9.46
2022-12-20T10:14:17.171Z,9.46
2022-12-20T10:15:17.193Z,9.43
2022-12-20T10:16:17.249Z,9.43
2022-12-20T10:17:17.179Z,9.41
2022-12-20T10:18:17.154Z,9.43
2022-12-20T10:19:17.155Z,9.40
2022-12-20T10:20:17.153Z,9.46
2022-12-20T10:21:17.152Z,9.43
2022-12-20T10:22:17.133Z,9.47
2022-12-20T10:23:17.130Z,9.46
2022-12-20T10:24:17.140Z,9.41
2022-12-20T10:25:17.120Z,9.41
2022-12-20T10:26:17.116Z,9.40
2022-12-20T10:27:17.113Z,9.50
2022-12-20T10:28:17.132Z,9.43
2022-12-20T10:29:17.104Z,9.46
2022-12-20T10:30:17.100Z,9.41
2022-12-20T10:31:17.214Z,9.48
2022-12-20T10:32:17.101Z,9.41
2022-12-20T10:33:17.083Z,9.44
2022-12-20T10:34:17.101Z,9.43
2022-12-20T10:35:17.075Z,9.44
2022-12-20T10:36:17.336Z,9.43
2022-12-20T10:37:17.070Z,9.46
2022-12-20T10:38:17.062Z,9.50
2022-12-20T10:39:17.091Z,9.55
2022-12-20T10:40:17.063Z,9.51
2022-12-20T10:41:22.314Z,9.58
2022-12-20T10:42:17.044Z,9.50
2022-12-20T10:43:17.040Z,9.58
2022-12-20T10:44:17.045Z,9.54
2022-12-20T10:45:17.029Z,9.58
2022-12-20T10:46:17.131Z,9.56
2022-12-20T10:47:17.043Z,9.59
2022-12-20T10:48:17.019Z,9.50
2022-12-20T10:49:17.034Z,9.61
2022-12-20T10:50:17.020Z,9.56
2022-12-20T10:51:17.248Z,9.56
2022-12-20T10:52:17.003Z,9.62
2022-12-20T10:53:16.997Z,9.69
2022-12-20T10:54:16.991Z,9.64
2022-12-20T10:55:16.994Z,9.62
2022-12-20T10:56:16.988Z,9.64
2022-12-20T10:57:16.976Z,9.69
2022-12-20T10:58:16.981Z,9.72
2022-12-20T10:59:16.972Z,9.72
2022-12-20T11:00:16.975Z,9.72
2022-12-20T11:01:16.972Z,9.72
2022-12-20T11:02:17.180Z,9.72
2022-12-20T11:03:17.294Z,9.73
2022-12-20T11:04:17.106Z,9.69
2022-12-20T11:05:16.942Z,9.69
2022-12-20T11:06:16.950Z,9.72
2022-12-20T11:07:16.934Z,9.74
2022-12-20T11:08:36.011Z,9.74
2022-12-20T11:09:16.929Z,9.83
2022-12-20T11:10:16.947Z,9.84
2022-12-20T11:11:16.931Z,9.80
2022-12-20T11:12:16.917Z,9.89
2022-12-20T11:13:16.916Z,9.97
2022-12-20T11:14:16.909Z,9.91
2022-12-20T11:15:16.903Z,9.95
2022-12-20T11:16:16.946Z,9.92
2022-12-20T11:17:16.892Z,10.05
2022-12-20T11:18:16.888Z,10.01
2022-12-20T11:19:16.918Z,10.01
2022-12-20T11:20:16.880Z,9.98
2022-12-20T11:21:20.366Z,9.94
2022-12-20T11:22:16.873Z,10.04
2022-12-20T11:23:16.867Z,10.01
2022-12-20T11:24:16.862Z,10.07
2022-12-20T11:25:16.857Z,10.02
2022-12-20T11:26:16.852Z,10.04
2022-12-20T11:27:16.864Z,10.04
2022-12-20T11:28:16.863Z,10.04
2022-12-20T11:29:16.864Z,10.02
2022-12-20T11:30:16.846Z,10.07
2022-12-20T11:31:16.888Z,10.05
2022-12-20T11:32:16.868Z,10.05
2022-12-20T11:33:16.825Z,10.07
2022-12-20T11:34:16.825Z,10.02
2022-12-20T11:35:16.863Z,10.07
2022-12-20T11:36:16.813Z,9.95
2022-12-20T11:37:16.819Z,9.94
2022-12-20T11:38:16.813Z,9.95
2022-12-20T11:39:16.804Z,9.92
2022-12-20T11:40:16.849Z,9.94
2022-12-20T11:41:17.139Z,9.99
2022-12-20T11:42:16.785Z,9.94
2022-12-20T11:43:16.779Z,10.01
2022-12-20T11:44:26.364Z,9.94
2022-12-20T11:45:16.774Z,9.98
2022-12-20T11:46:16.866Z,9.97
2022-12-20T11:47:16.850Z,10.01
2022-12-20T11:48:16.763Z,9.92
2022-12-20T11:49:16.755Z,10.01
2022-12-20T11:50:16.752Z,9.95
2022-12-20T11:51:21.350Z,9.92
2022-12-20T11:52:16.746Z,9.99
2022-12-20T11:53:16.740Z,9.95
2022-12-20T11:54:16.737Z,9.98
2022-12-20T11:55:16.737Z,10.05
2022-12-20T11:56:16.736Z,9.98
2022-12-20T11:57:16.724Z,10.10
2022-12-20T11:58:19.263Z,10.05
2022-12-20T11:59:16.730Z,10.10
2022-12-20T12:00:16.716Z,10.07
2022-12-20T12:01:16.713Z,10.10
2022-12-20T12:02:16.818Z,10.04
2022-12-20T12:03:16.765Z,10.09
2022-12-20T12:04:16.696Z,10.05
2022-12-20T12:05:16.790Z,10.17
2022-12-20T12:06:16.687Z,10.05
2022-12-20T12:07:16.707Z,10.12
2022-12-20T12:08:18.471Z,10.07
2022-12-20T12:09:16.725Z,10.17
2022-12-20T12:10:16.846Z,10.05
2022-12-20T12:11:55.863Z,10.07
2022-12-20T12:12:16.664Z,10.13
2022-12-20T12:13:16.659Z,10.07
2022-12-20T12:14:16.654Z,10.12
2022-12-20T12:15:17.539Z,10.05
2022-12-20T12:16:16.686Z,10.09
2022-12-20T12:17:16.651Z,10.05
2022-12-20T12:18:16.640Z,10.07
2022-12-20T12:19:16.638Z,10.07
2022-12-20T12:20:16.714Z,10.12
2022-12-20T12:21:16.625Z,10.15
2022-12-20T12:22:16.643Z,10.17
2022-12-20T12:23:16.653Z,10.23
2022-12-20T12:24:16.621Z,10.13
2022-12-20T12:25:16.617Z,10.16
2022-12-20T12:26:16.620Z,10.13
2022-12-20T12:27:16.598Z,10.15
2022-12-20T12:28:16.597Z,10.15
2022-12-20T12:29:16.592Z,10.12
2022-12-20T12:30:16.695Z,10.20
2022-12-20T12:31:16.621Z,10.15
2022-12-20T12:32:16.731Z,10.20
2022-12-20T12:33:23.913Z,10.15
2022-12-20T12:34:16.572Z,10.22
2022-12-20T12:35:16.568Z,10.20
2022-12-20T12:36:16.570Z,10.12
2022-12-20T12:37:16.564Z,10.19
2022-12-20T12:38:16.567Z,10.15
2022-12-20T12:39:16.568Z,10.19
2022-12-20T12:40:16.761Z,10.19
2022-12-20T12:41:16.544Z,10.22
2022-12-20T12:42:16.542Z,10.15
2022-12-20T12:43:16.539Z,10.20
2022-12-20T12:44:16.532Z,10.02
2022-12-20T12:45:16.530Z,10.17
2022-12-20T12:46:16.719Z,10.04
2022-12-20T12:47:16.518Z,10.02
2022-12-20T12:48:16.524Z,10.13
2022-12-20T12:49:16.543Z,10.05
2022-12-20T12:50:16.515Z,10.04
2022-12-20T12:51:16.506Z,10.10
2022-12-20T12:52:16.501Z,10.10
2022-12-20T12:53:16.495Z,10.01
2022-12-20T12:54:16.502Z,10.04
2022-12-20T12:55:16.513Z,9.99
2022-12-20T12:56:41.973Z,10.05
2022-12-20T12:57:16.490Z,10.02
2022-12-20T12:58:16.476Z,9.97
2022-12-20T12:59:16.472Z,9.97
2022-12-20T13:00:16.486Z,9.95
2022-12-20T13:01:16.537Z,9.97
2022-12-20T13:02:16.965Z,9.91
2022-12-20T13:03:16.648Z,9.92
2022-12-20T13:04:16.450Z,9.89
2022-12-20T13:05:19.427Z,9.89
2022-12-20T13:06:16.441Z,9.92
2022-12-20T13:07:16.437Z,9.97
2022-12-20T13:08:16.435Z,9.95
2022-12-20T13:09:16.431Z,9.92
2022-12-20T13:10:16.432Z,9.89
2022-12-20T13:11:16.442Z,9.95
2022-12-20T13:12:16.420Z,9.87
2022-12-20T13:13:16.424Z,9.91
2022-12-20T13:14:16.444Z,9.89
2022-12-20T13:15:16.404Z,9.95
2022-12-20T13:16:16.423Z,9.87
2022-12-20T13:17:22.383Z,9.82
2022-12-20T13:18:16.475Z,9.84
2022-12-20T13:19:16.389Z,9.83
2022-12-20T13:20:16.385Z,9.82
2022-12-20T13:21:16.379Z,9.86
2022-12-20T13:22:16.381Z,9.84
2022-12-20T13:23:16.377Z,9.87
2022-12-20T13:24:16.381Z,9.82
2022-12-20T13:25:16.383Z,9.79
2022-12-20T13:26:16.366Z,9.82
2022-12-20T13:27:16.380Z,9.84
2022-12-20T13:28:16.360Z,9.82
2022-12-20T13:29:16.348Z,9.76
2022-12-20T13:30:16.351Z,9.79
2022-12-20T13:31:16.446Z,9.82
2022-12-20T13:32:16.343Z,9.86
2022-12-20T13:33:16.344Z,9.79
2022-12-20T13:34:16.335Z,9.80
2022-12-20T13:35:16.341Z,9.79
2022-12-20T13:36:16.321Z,9.80
2022-12-20T13:37:16.315Z,9.82
2022-12-20T13:38:16.312Z,9.83
2022-12-20T13:39:16.307Z,9.82
2022-12-20T13:40:16.302Z,9.83
2022-12-20T13:41:16.299Z,9.72
2022-12-20T13:42:16.309Z,9.76
2022-12-20T13:43:16.312Z,9.69
2022-12-20T13:44:16.320Z,9.73
2022-12-20T13:45:16.286Z,9.80
2022-12-20T13:46:16.331Z,9.68
2022-12-20T13:47:16.276Z,9.69
2022-12-20T13:48:16.285Z,9.69
2022-12-20T13:49:16.273Z,9.68
2022-12-20T13:50:16.271Z,9.66
2022-12-20T13:51:16.257Z,9.77
2022-12-20T13:52:16.255Z,9.76
2022-12-20T13:53:16.249Z,9.76
2022-12-20T13:54:19.317Z,9.80
2022-12-20T13:55:16.241Z,9.76
2022-12-20T13:56:16.240Z,9.72
2022-12-20T13:57:16.240Z,9.84
2022-12-20T13:58:16.230Z,9.77
2022-12-20T13:59:16.245Z,9.66
2022-12-20T14:00:16.223Z,9.76
2022-12-20T14:01:16.236Z,9.76
2022-12-20T14:02:16.442Z,9.68
2022-12-20T14:03:16.381Z,9.69
2022-12-20T14:04:16.361Z,9.69
2022-12-20T14:05:16.207Z,9.76
2022-12-20T14:06:19.194Z,9.72
2022-12-20T14:07:16.195Z,9.66
2022-12-20T14:08:16.191Z,9.59
2022-12-20T14:09:16.186Z,9.65
2022-12-20T14:10:16.185Z,9.68
2022-12-20T14:11:16.178Z,9.64
2022-12-20T14:12:23.263Z,9.66
2022-12-20T14:13:16.171Z,9.66
2022-12-20T14:14:16.175Z,9.55
2022-12-20T14:15:16.181Z,9.55
2022-12-20T14:16:16.272Z,9.55
2022-12-20T14:17:16.231Z,9.59
2022-12-20T14:18:16.167Z,9.54
2022-12-20T14:19:16.143Z,9.69
2022-12-20T14:20:16.155Z,9.66
2022-12-20T14:21:16.137Z,9.73
2022-12-20T14:22:16.137Z,9.74
2022-12-20T14:23:16.129Z,9.65
2022-12-20T14:24:16.128Z,9.65
2022-12-20T14:25:16.121Z,9.68
2022-12-20T14:26:16.114Z,9.69
2022-12-20T14:27:16.120Z,9.68
2022-12-20T14:28:19.976Z,9.69
2022-12-20T14:29:16.103Z,9.58
2022-12-20T14:30:16.097Z,9.64
2022-12-20T14:31:16.241Z,9.61
2022-12-20T14:32:16.092Z,9.55
2022-12-20T14:33:16.099Z,9.55
2022-12-20T14:34:16.091Z,9.61
2022-12-20T14:35:16.115Z,9.61
2022-12-20T14:36:16.085Z,9.58
2022-12-20T14:37:16.075Z,9.64
2022-12-20T14:38:16.067Z,9.69
2022-12-20T14:39:16.066Z,9.64
2022-12-20T14:40:16.062Z,9.56
2022-12-20T14:41:16.058Z,9.68
2022-12-20T14:42:16.046Z,9.56
2022-12-20T14:43:16.048Z,9.59
2022-12-20T14:44:16.041Z,9.59
2022-12-20T14:45:16.055Z,9.69
2022-12-20T14:46:16.121Z,9.68
2022-12-20T14:47:16.217Z,9.68
2022-12-20T14:48:16.029Z,9.61
2022-12-20T14:49:16.036Z,9.64
2022-12-20T14:50:16.026Z,9.59